sensor_id;sensor_type;location;lat;lon;timestamp;temperature;humidity
9861;DHT22;4969;52.304;4.968;2023-03-14T00:00:23;13.02;68.17
9861;DHT22;4969;52.304;4.968;2023-03-14T00:02:51;13.35;65.84
9861;DHT22;4969;52.304;4.968;2023-03-14T00:05:18;13.34;65.76
9861;DHT22;4969;52.304;4.968;2023-03-14T00:07:45;13.52;68.90
9861;DHT22;4969;52.304;4.968;2023-03-14T00:10:13;12.96;67.53
9861;DHT22;4969;52.304;4.968;2023-03-14T00:12:40;12.88;70.72
9861;DHT22;4969;52.304;4.968;2023-03-14T00:15:08;13.44;68.38
9861;DHT22;4969;52.304;4.968;2023-03-14T00:17:37;13.50;66.47
9861;DHT22;4969;52.304;4.968;2023-03-14T00:20:05;13.86;64.90
9861;DHT22;4969;52.304;4.968;2023-03-14T00:22:34;13.57;66.86
9861;DHT22;4969;52.304;4.968;2023-03-14T00:25:01;13.69;65.64
9861;DHT22;4969;52.304;4.968;2023-03-14T00:27:28;13.41;71.32
9861;DHT22;4969;52.304;4.968;2023-03-14T00:29:55;13.79;65.11
9861;DHT22;4969;52.304;4.968;2023-03-14T00:32:21;13.85;68.82
9861;DHT22;4969;52.304;4.968;2023-03-14T00:34:49;14.48;64.31
9861;DHT22;4969;52.304;4.968;2023-03-14T00:37:16;14.79;64.65
9861;DHT22;4969;52.304;4.968;2023-03-14T00:39:42;14.57;62.97
9861;DHT22;4969;52.304;4.968;2023-03-14T00:42:09;14.09;63.79
9861;DHT22;4969;52.304;4.968;2023-03-14T00:44:36;14.16;64.74
9861;DHT22;4969;52.304;4.968;2023-03-14T00:47:02;14.10;65.04
9861;DHT22;4969;52.304;4.968;2023-03-14T00:49:29;13.85;65.03
9861;DHT22;4969;52.304;4.968;2023-03-14T00:51:57;13.95;66.20
9861;DHT22;4969;52.304;4.968;2023-03-14T00:54:23;13.37;67.04
9861;DHT22;4969;52.304;4.968;2023-03-14T00:56:50;14.12;66.55
9861;DHT22;4969;52.304;4.968;2023-03-14T00:59:16;14.45;63.15
9861;DHT22;4969;52.304;4.968;2023-03-14T01:01:43;14.34;63.20
9861;DHT22;4969;52.304;4.968;2023-03-14T01:04:10;14.21;67.11
9861;DHT22;4969;52.304;4.968;2023-03-14T01:06:36;15.26;63.81
9861;DHT22;4969;52.304;4.968;2023-03-14T01:09:05;14.89;61.38
9861;DHT22;4969;52.304;4.968;2023-03-14T01:11:34;14.47;66.70
9861;DHT22;4969;52.304;4.968;2023-03-14T01:14:01;14.67;63.62
9861;DHT22;4969;52.304;4.968;2023-03-14T01:16:30;15.04;63.35
9861;DHT22;4969;52.304;4.968;2023-03-14T01:18:57;14.13;67.27
9861;DHT22;4969;52.304;4.968;2023-03-14T01:21:26;14.09;64.62
9861;DHT22;4969;52.304;4.968;2023-03-14T01:23:54;14.03;67.77
9861;DHT22;4969;52.304;4.968;2023-03-14T01:26:24;15.06;64.33
9861;DHT22;4969;52.304;4.968;2023-03-14T01:28:52;15.06;64.88
9861;DHT22;4969;52.304;4.968;2023-03-14T01:31:19;14.67;63.63
9861;DHT22;4969;52.304;4.968;2023-03-14T01:33:46;14.68;65.09
9861;DHT22;4969;52.304;4.968;2023-03-14T01:36:13;15.20;65.25
9861;DHT22;4969;52.304;4.968;2023-03-14T01:38:40;14.24;66.37
9861;DHT22;4969;52.304;4.968;2023-03-14T01:41:07;14.14;66.36
9861;DHT22;4969;52.304;4.968;2023-03-14T01:43:35;14.28;66.65
9861;DHT22;4969;52.304;4.968;2023-03-14T01:46:24;13.38;67.53
9861;DHT22;4969;52.304;4.968;2023-03-14T01:48:59;13.68;69.09
9861;DHT22;4969;52.304;4.968;2023-03-14T01:51:30;15.20;64.69
9861;DHT22;4969;52.304;4.968;2023-03-14T01:54:04;14.34;64.44
9861;DHT22;4969;52.304;4.968;2023-03-14T01:56:32;14.71;63.96
9861;DHT22;4969;52.304;4.968;2023-03-14T01:59:01;15.18;65.21
9861;DHT22;4969;52.304;4.968;2023-03-14T02:01:30;15.27;61.97
9861;DHT22;4969;52.304;4.968;2023-03-14T02:03:59;15.62;62.90
9861;DHT22;4969;52.304;4.968;2023-03-14T02:06:33;15.53;62.67
9861;DHT22;4969;52.304;4.968;2023-03-14T02:09:01;16.00;61.39
9861;DHT22;4969;52.304;4.968;2023-03-14T02:11:29;15.83;59.91
9861;DHT22;4969;52.304;4.968;2023-03-14T02:13:57;15.48;63.53
9861;DHT22;4969;52.304;4.968;2023-03-14T02:16:26;14.85;62.60
9861;DHT22;4969;52.304;4.968;2023-03-14T02:18:53;15.50;64.05
9861;DHT22;4969;52.304;4.968;2023-03-14T02:21:23;15.58;61.82
9861;DHT22;4969;52.304;4.968;2023-03-14T02:23:58;15.27;62.08
9861;DHT22;4969;52.304;4.968;2023-03-14T02:26:32;15.94;62.49
9861;DHT22;4969;52.304;4.968;2023-03-14T02:29:02;15.57;61.76
9861;DHT22;4969;52.304;4.968;2023-03-14T02:31:28;14.82;66.28
9861;DHT22;4969;52.304;4.968;2023-03-14T02:33:56;15.07;64.41
9861;DHT22;4969;52.304;4.968;2023-03-14T02:36:23;15.47;61.75
9861;DHT22;4969;52.304;4.968;2023-03-14T02:38:52;15.09;61.70
9861;DHT22;4969;52.304;4.968;2023-03-14T02:41:19;15.04;63.72
9861;DHT22;4969;52.304;4.968;2023-03-14T02:43:46;14.62;64.59
9861;DHT22;4969;52.304;4.968;2023-03-14T02:46:16;14.89;63.36
9861;DHT22;4969;52.304;4.968;2023-03-14T02:48:47;14.61;66.87
9861;DHT22;4969;52.304;4.968;2023-03-14T02:51:15;14.30;66.39
9861;DHT22;4969;52.304;4.968;2023-03-14T02:53:42;14.33;65.54
9861;DHT22;4969;52.304;4.968;2023-03-14T02:56:09;14.18;67.71
9861;DHT22;4969;52.304;4.968;2023-03-14T02:58:35;14.75;66.06
9861;DHT22;4969;52.304;4.968;2023-03-14T03:01:03;15.03;64.95
9861;DHT22;4969;52.304;4.968;2023-03-14T03:03:31;15.04;62.41
9861;DHT22;4969;52.304;4.968;2023-03-14T03:05:58;15.27;63.81
9861;DHT22;4969;52.304;4.968;2023-03-14T03:08:26;15.44;61.47
9861;DHT22;4969;52.304;4.968;2023-03-14T03:10:53;15.21;64.16
9861;DHT22;4969;52.304;4.968;2023-03-14T03:13:20;15.41;63.04
9861;DHT22;4969;52.304;4.968;2023-03-14T03:15:47;15.58;63.93
9861;DHT22;4969;52.304;4.968;2023-03-14T03:18:14;15.10;63.85
9861;DHT22;4969;52.304;4.968;2023-03-14T03:20:41;15.75;60.45
9861;DHT22;4969;52.304;4.968;2023-03-14T03:23:08;15.53;63.63
9861;DHT22;4969;52.304;4.968;2023-03-14T03:25:35;15.16;62.87
9861;DHT22;4969;52.304;4.968;2023-03-14T03:28:01;15.34;61.91
9861;DHT22;4969;52.304;4.968;2023-03-14T03:30:33;15.37;62.62
9861;DHT22;4969;52.304;4.968;2023-03-14T03:32:59;15.31;61.95
9861;DHT22;4969;52.304;4.968;2023-03-14T03:35:26;15.54;61.86
9861;DHT22;4969;52.304;4.968;2023-03-14T03:37:54;15.27;61.37
9861;DHT22;4969;52.304;4.968;2023-03-14T03:40:20;15.82;61.89
9861;DHT22;4969;52.304;4.968;2023-03-14T03:42:47;16.17;61.59
9861;DHT22;4969;52.304;4.968;2023-03-14T03:45:13;15.43;62.35
9861;DHT22;4969;52.304;4.968;2023-03-14T03:47:40;15.64;63.24
9861;DHT22;4969;52.304;4.968;2023-03-14T03:50:07;15.43;63.72
9861;DHT22;4969;52.304;4.968;2023-03-14T03:52:34;16.17;61.27
9861;DHT22;4969;52.304;4.968;2023-03-14T03:55:02;16.38;59.68
9861;DHT22;4969;52.304;4.968;2023-03-14T03:57:28;15.65;61.16
9861;DHT22;4969;52.304;4.968;2023-03-14T03:59:55;15.64;62.08
9861;DHT22;4969;52.304;4.968;2023-03-14T04:02:22;15.89;61.45
9861;DHT22;4969;52.304;4.968;2023-03-14T04:04:48;15.47;63.11
9861;DHT22;4969;52.304;4.968;2023-03-14T04:07:15;15.73;61.69
9861;DHT22;4969;52.304;4.968;2023-03-14T04:09:41;15.57;63.27
9861;DHT22;4969;52.304;4.968;2023-03-14T04:12:09;15.92;62.63
9861;DHT22;4969;52.304;4.968;2023-03-14T04:14:36;16.48;60.71
9861;DHT22;4969;52.304;4.968;2023-03-14T04:17:02;15.68;61.51
9861;DHT22;4969;52.304;4.968;2023-03-14T04:19:29;16.02;62.33
9861;DHT22;4969;52.304;4.968;2023-03-14T04:21:56;16.24;59.45
9861;DHT22;4969;52.304;4.968;2023-03-14T04:24:22;15.89;62.29
9861;DHT22;4969;52.304;4.968;2023-03-14T04:26:49;15.72;61.65
9861;DHT22;4969;52.304;4.968;2023-03-14T04:29:16;15.21;64.36
9861;DHT22;4969;52.304;4.968;2023-03-14T04:31:43;15.85;62.70
9861;DHT22;4969;52.304;4.968;2023-03-14T04:34:10;14.85;62.79
9861;DHT22;4969;52.304;4.968;2023-03-14T04:36:36;15.24;64.57
9861;DHT22;4969;52.304;4.968;2023-03-14T04:39:03;15.45;63.71
9861;DHT22;4969;52.304;4.968;2023-03-14T04:41:30;14.54;64.67
9861;DHT22;4969;52.304;4.968;2023-03-14T04:43:57;14.61;65.53
9861;DHT22;4969;52.304;4.968;2023-03-14T04:46:25;14.40;66.09
9861;DHT22;4969;52.304;4.968;2023-03-14T04:48:52;14.76;64.99
9861;DHT22;4969;52.304;4.968;2023-03-14T04:51:18;14.37;66.23
9861;DHT22;4969;52.304;4.968;2023-03-14T04:53:48;15.09;64.73
9861;DHT22;4969;52.304;4.968;2023-03-14T04:56:14;15.85;61.80
9861;DHT22;4969;52.304;4.968;2023-03-14T04:58:41;15.48;63.12
9861;DHT22;4969;52.304;4.968;2023-03-14T05:01:07;15.89;62.13
9861;DHT22;4969;52.304;4.968;2023-03-14T05:03:35;15.28;63.42
9861;DHT22;4969;52.304;4.968;2023-03-14T05:06:03;15.17;65.11
9861;DHT22;4969;52.304;4.968;2023-03-14T05:08:30;15.37;63.41
9861;DHT22;4969;52.304;4.968;2023-03-14T05:10:57;15.24;63.36
9861;DHT22;4969;52.304;4.968;2023-03-14T05:13:24;15.27;64.43
9861;DHT22;4969;52.304;4.968;2023-03-14T05:15:51;15.44;63.14
9861;DHT22;4969;52.304;4.968;2023-03-14T05:18:17;15.26;64.30
9861;DHT22;4969;52.304;4.968;2023-03-14T05:20:45;15.55;63.09
9861;DHT22;4969;52.304;4.968;2023-03-14T05:23:12;14.30;67.70
9861;DHT22;4969;52.304;4.968;2023-03-14T05:25:38;13.83;69.12
9861;DHT22;4969;52.304;4.968;2023-03-14T05:28:05;14.44;67.18
9861;DHT22;4969;52.304;4.968;2023-03-14T05:30:31;14.92;66.36
9861;DHT22;4969;52.304;4.968;2023-03-14T05:32:59;15.51;63.70
9861;DHT22;4969;52.304;4.968;2023-03-14T05:35:25;14.93;65.10
9861;DHT22;4969;52.304;4.968;2023-03-14T05:37:53;14.14;67.64
9861;DHT22;4969;52.304;4.968;2023-03-14T05:40:19;13.66;70.31
9861;DHT22;4969;52.304;4.968;2023-03-14T05:42:46;13.20;71.14
9861;DHT22;4969;52.304;4.968;2023-03-14T05:45:13;12.54;72.84
9861;DHT22;4969;52.304;4.968;2023-03-14T05:47:39;11.96;75.44
9861;DHT22;4969;52.304;4.968;2023-03-14T05:50:06;12.06;76.33
9861;DHT22;4969;52.304;4.968;2023-03-14T05:52:33;11.78;77.10
9861;DHT22;4969;52.304;4.968;2023-03-14T05:55:01;11.12;79.66
9861;DHT22;4969;52.304;4.968;2023-03-14T05:57:27;10.95;79.04
9861;DHT22;4969;52.304;4.968;2023-03-14T05:59:54;10.26;79.81
9861;DHT22;4969;52.304;4.968;2023-03-14T06:02:21;9.61;81.29
9861;DHT22;4969;52.304;4.968;2023-03-14T06:04:47;9.54;81.16
9861;DHT22;4969;52.304;4.968;2023-03-14T06:07:14;9.23;83.43
9861;DHT22;4969;52.304;4.968;2023-03-14T06:09:40;9.48;81.78
9861;DHT22;4969;52.304;4.968;2023-03-14T06:12:08;9.55;83.23
9861;DHT22;4969;52.304;4.968;2023-03-14T06:14:35;9.23;82.78
9861;DHT22;4969;52.304;4.968;2023-03-14T06:17:01;9.24;83.50
9861;DHT22;4969;52.304;4.968;2023-03-14T06:19:28;9.20;84.11
9861;DHT22;4969;52.304;4.968;2023-03-14T06:21:55;8.84;84.26
9861;DHT22;4969;52.304;4.968;2023-03-14T06:24:21;9.26;83.12
9861;DHT22;4969;52.304;4.968;2023-03-14T06:26:48;9.36;82.75
9861;DHT22;4969;52.304;4.968;2023-03-14T06:29:16;9.03;83.38
9861;DHT22;4969;52.304;4.968;2023-03-14T06:31:42;9.16;83.37
9861;DHT22;4969;52.304;4.968;2023-03-14T06:34:09;9.16;83.24
9861;DHT22;4969;52.304;4.968;2023-03-14T06:36:35;9.07;84.00
9861;DHT22;4969;52.304;4.968;2023-03-14T06:39:02;9.33;83.59
9861;DHT22;4969;52.304;4.968;2023-03-14T06:41:28;9.06;82.62
9861;DHT22;4969;52.304;4.968;2023-03-14T06:43:55;9.10;86.13
9861;DHT22;4969;52.304;4.968;2023-03-14T06:46:23;8.61;82.68
9861;DHT22;4969;52.304;4.968;2023-03-14T06:48:49;8.85;82.05
9861;DHT22;4969;52.304;4.968;2023-03-14T06:51:16;8.81;81.94
9861;DHT22;4969;52.304;4.968;2023-03-14T06:53:43;9.00;84.90
9861;DHT22;4969;52.304;4.968;2023-03-14T06:56:09;8.37;83.24
9861;DHT22;4969;52.304;4.968;2023-03-14T06:58:36;8.96;82.17
9861;DHT22;4969;52.304;4.968;2023-03-14T07:01:03;8.64;80.92
9861;DHT22;4969;52.304;4.968;2023-03-14T07:03:31;8.52;84.15
9861;DHT22;4969;52.304;4.968;2023-03-14T07:05:57;8.69;83.76
9861;DHT22;4969;52.304;4.968;2023-03-14T07:08:25;8.41;82.48
9861;DHT22;4969;52.304;4.968;2023-03-14T07:10:51;8.48;80.89
9861;DHT22;4969;52.304;4.968;2023-03-14T07:13:18;8.67;82.45
9861;DHT22;4969;52.304;4.968;2023-03-14T07:15:44;8.26;81.82
9861;DHT22;4969;52.304;4.968;2023-03-14T07:18:11;8.44;84.60
9861;DHT22;4969;52.304;4.968;2023-03-14T07:20:39;8.43;81.34
9861;DHT22;4969;52.304;4.968;2023-03-14T07:23:05;8.34;81.87
9861;DHT22;4969;52.304;4.968;2023-03-14T07:25:32;8.24;82.89
9861;DHT22;4969;52.304;4.968;2023-03-14T07:27:58;8.17;81.62
9861;DHT22;4969;52.304;4.968;2023-03-14T07:30:25;7.75;83.62
9861;DHT22;4969;52.304;4.968;2023-03-14T07:32:51;7.71;83.69
9861;DHT22;4969;52.304;4.968;2023-03-14T07:35:18;8.24;86.01
9861;DHT22;4969;52.304;4.968;2023-03-14T07:37:46;7.36;83.41
9861;DHT22;4969;52.304;4.968;2023-03-14T07:40:13;7.03;83.53
9861;DHT22;4969;52.304;4.968;2023-03-14T07:42:40;6.88;85.06
9861;DHT22;4969;52.304;4.968;2023-03-14T07:45:08;6.81;86.76
9861;DHT22;4969;52.304;4.968;2023-03-14T07:47:34;6.46;83.40
9861;DHT22;4969;52.304;4.968;2023-03-14T07:50:01;6.39;84.49
9861;DHT22;4969;52.304;4.968;2023-03-14T07:52:28;6.36;83.98
9861;DHT22;4969;52.304;4.968;2023-03-14T07:54:56;6.30;85.90
9861;DHT22;4969;52.304;4.968;2023-03-14T07:57:23;6.09;85.55
9861;DHT22;4969;52.304;4.968;2023-03-14T07:59:50;6.51;84.42
9861;DHT22;4969;52.304;4.968;2023-03-14T08:02:16;6.03;86.30
9861;DHT22;4969;52.304;4.968;2023-03-14T08:04:45;6.23;86.05
9861;DHT22;4969;52.304;4.968;2023-03-14T08:07:12;6.40;86.51
9861;DHT22;4969;52.304;4.968;2023-03-14T08:09:38;6.46;84.76
9861;DHT22;4969;52.304;4.968;2023-03-14T08:12:07;6.25;84.24
9861;DHT22;4969;52.304;4.968;2023-03-14T08:14:33;6.32;85.98
9861;DHT22;4969;52.304;4.968;2023-03-14T08:17:00;6.44;87.70
9861;DHT22;4969;52.304;4.968;2023-03-14T08:19:27;6.60;84.82
9861;DHT22;4969;52.304;4.968;2023-03-14T08:21:53;6.30;83.55
9861;DHT22;4969;52.304;4.968;2023-03-14T08:24:20;6.37;82.98
9861;DHT22;4969;52.304;4.968;2023-03-14T08:26:46;6.25;81.76
9861;DHT22;4969;52.304;4.968;2023-03-14T08:29:14;6.30;81.77
9861;DHT22;4969;52.304;4.968;2023-03-14T08:31:41;6.48;81.30
9861;DHT22;4969;52.304;4.968;2023-03-14T08:34:08;6.73;81.67
9861;DHT22;4969;52.304;4.968;2023-03-14T08:36:34;6.53;80.69
9861;DHT22;4969;52.304;4.968;2023-03-14T08:39:01;6.46;81.04
9861;DHT22;4969;52.304;4.968;2023-03-14T08:41:29;6.71;79.23
9861;DHT22;4969;52.304;4.968;2023-03-14T08:43:55;6.56;77.99
9861;DHT22;4969;52.304;4.968;2023-03-14T08:46:23;6.64;78.75
9861;DHT22;4969;52.304;4.968;2023-03-14T08:48:50;6.43;77.31
9861;DHT22;4969;52.304;4.968;2023-03-14T08:51:17;6.18;76.83
9861;DHT22;4969;52.304;4.968;2023-03-14T08:53:43;6.33;78.40
9861;DHT22;4969;52.304;4.968;2023-03-14T08:56:10;6.32;78.38
9861;DHT22;4969;52.304;4.968;2023-03-14T08:58:37;6.71;80.90
9861;DHT22;4969;52.304;4.968;2023-03-14T09:01:04;6.75;76.46
9861;DHT22;4969;52.304;4.968;2023-03-14T09:03:32;6.81;79.03
9861;DHT22;4969;52.304;4.968;2023-03-14T09:06:01;6.65;74.79
9861;DHT22;4969;52.304;4.968;2023-03-14T09:08:29;7.29;78.09
9861;DHT22;4969;52.304;4.968;2023-03-14T09:10:56;7.12;75.77
9861;DHT22;4969;52.304;4.968;2023-03-14T09:13:22;7.01;72.76
9861;DHT22;4969;52.304;4.968;2023-03-14T09:15:50;6.74;74.69
9861;DHT22;4969;52.304;4.968;2023-03-14T09:18:17;6.77;74.40
9861;DHT22;4969;52.304;4.968;2023-03-14T09:20:45;6.85;76.74
9861;DHT22;4969;52.304;4.968;2023-03-14T09:23:11;7.27;75.40
9861;DHT22;4969;52.304;4.968;2023-03-14T09:25:38;6.92;75.62
9861;DHT22;4969;52.304;4.968;2023-03-14T09:28:05;7.09;75.98
9861;DHT22;4969;52.304;4.968;2023-03-14T09:30:32;7.02;75.38
9861;DHT22;4969;52.304;4.968;2023-03-14T09:32:59;8.03;72.93
9861;DHT22;4969;52.304;4.968;2023-03-14T09:35:25;7.61;75.00
9861;DHT22;4969;52.304;4.968;2023-03-14T09:37:53;7.78;78.36
9861;DHT22;4969;52.304;4.968;2023-03-14T09:40:21;7.12;74.68
9861;DHT22;4969;52.304;4.968;2023-03-14T09:42:51;6.77;72.37
9861;DHT22;4969;52.304;4.968;2023-03-14T09:45:23;6.44;74.49
9861;DHT22;4969;52.304;4.968;2023-03-14T09:47:52;6.36;75.88
9861;DHT22;4969;52.304;4.968;2023-03-14T09:50:19;6.70;76.92
9861;DHT22;4969;52.304;4.968;2023-03-14T09:52:48;6.96;80.35
9861;DHT22;4969;52.304;4.968;2023-03-14T09:55:19;6.88;79.12
9861;DHT22;4969;52.304;4.968;2023-03-14T09:57:47;6.95;75.52
9861;DHT22;4969;52.304;4.968;2023-03-14T10:00:17;7.19;73.87
9861;DHT22;4969;52.304;4.968;2023-03-14T10:02:50;7.55;71.04
9861;DHT22;4969;52.304;4.968;2023-03-14T10:05:19;7.15;73.57
9861;DHT22;4969;52.304;4.968;2023-03-14T10:07:46;7.60;78.10
9861;DHT22;4969;52.304;4.968;2023-03-14T10:10:15;7.31;73.55
9861;DHT22;4969;52.304;4.968;2023-03-14T10:12:46;7.91;73.47
9861;DHT22;4969;52.304;4.968;2023-03-14T10:15:14;8.01;73.99
9861;DHT22;4969;52.304;4.968;2023-03-14T10:17:47;7.33;70.31
9861;DHT22;4969;52.304;4.968;2023-03-14T10:20:30;7.95;70.84
9861;DHT22;4969;52.304;4.968;2023-03-14T10:22:59;7.51;68.63
9861;DHT22;4969;52.304;4.968;2023-03-14T10:25:28;7.11;69.18
9861;DHT22;4969;52.304;4.968;2023-03-14T10:27:56;7.01;68.22
9861;DHT22;4969;52.304;4.968;2023-03-14T10:30:29;7.06;67.76
9861;DHT22;4969;52.304;4.968;2023-03-14T10:32:56;7.89;68.05
9861;DHT22;4969;52.304;4.968;2023-03-14T10:35:23;7.55;69.87
9861;DHT22;4969;52.304;4.968;2023-03-14T10:37:52;7.36;64.13
9861;DHT22;4969;52.304;4.968;2023-03-14T10:40:26;7.88;73.12
9861;DHT22;4969;52.304;4.968;2023-03-14T10:42:52;7.61;61.56
9861;DHT22;4969;52.304;4.968;2023-03-14T10:45:31;7.99;63.25
9861;DHT22;4969;52.304;4.968;2023-03-14T10:47:59;8.78;69.66
9861;DHT22;4969;52.304;4.968;2023-03-14T10:50:31;7.82;62.89
9861;DHT22;4969;52.304;4.968;2023-03-14T10:53:01;8.24;59.82
9861;DHT22;4969;52.304;4.968;2023-03-14T10:55:40;8.40;60.80
9861;DHT22;4969;52.304;4.968;2023-03-14T10:58:21;8.52;60.22
9861;DHT22;4969;52.304;4.968;2023-03-14T11:00:54;8.17;58.81
9861;DHT22;4969;52.304;4.968;2023-03-14T11:03:21;8.36;60.63
9861;DHT22;4969;52.304;4.968;2023-03-14T11:05:53;8.65;63.33
9861;DHT22;4969;52.304;4.968;2023-03-14T11:08:25;8.23;61.96
9861;DHT22;4969;52.304;4.968;2023-03-14T11:10:57;9.05;62.07
9861;DHT22;4969;52.304;4.968;2023-03-14T11:13:31;7.88;55.34
9861;DHT22;4969;52.304;4.968;2023-03-14T11:16:08;7.94;56.35
9861;DHT22;4969;52.304;4.968;2023-03-14T11:19:03;8.12;54.79
9861;DHT22;4969;52.304;4.968;2023-03-14T11:21:35;8.23;55.44
9861;DHT22;4969;52.304;4.968;2023-03-14T11:24:33;7.81;50.99
9861;DHT22;4969;52.304;4.968;2023-03-14T11:27:07;7.89;53.97
9861;DHT22;4969;52.304;4.968;2023-03-14T11:29:40;8.29;57.93
9861;DHT22;4969;52.304;4.968;2023-03-14T11:32:19;7.71;51.83
9861;DHT22;4969;52.304;4.968;2023-03-14T11:34:50;8.20;58.48
9861;DHT22;4969;52.304;4.968;2023-03-14T11:37:23;8.05;50.79
9861;DHT22;4969;52.304;4.968;2023-03-14T11:39:56;8.29;50.41
9861;DHT22;4969;52.304;4.968;2023-03-14T11:42:24;8.05;50.38
9861;DHT22;4969;52.304;4.968;2023-03-14T11:44:54;8.10;51.89
9861;DHT22;4969;52.304;4.968;2023-03-14T11:47:24;8.03;51.10
9861;DHT22;4969;52.304;4.968;2023-03-14T11:49:53;7.91;52.09
9861;DHT22;4969;52.304;4.968;2023-03-14T11:52:26;8.19;55.72
9861;DHT22;4969;52.304;4.968;2023-03-14T11:54:57;8.29;62.23
9861;DHT22;4969;52.304;4.968;2023-03-14T11:57:24;8.27;50.28
9861;DHT22;4969;52.304;4.968;2023-03-14T11:59:55;7.89;48.26
9861;DHT22;4969;52.304;4.968;2023-03-14T12:02:31;7.95;49.94
9861;DHT22;4969;52.304;4.968;2023-03-14T12:05:31;8.58;49.49
9861;DHT22;4969;52.304;4.968;2023-03-14T12:08:21;8.26;48.00
9861;DHT22;4969;52.304;4.968;2023-03-14T12:10:51;8.51;50.48
9861;DHT22;4969;52.304;4.968;2023-03-14T12:13:19;8.45;49.37
9861;DHT22;4969;52.304;4.968;2023-03-14T12:15:48;8.24;54.78
9861;DHT22;4969;52.304;4.968;2023-03-14T12:18:25;7.96;51.05
9861;DHT22;4969;52.304;4.968;2023-03-14T12:20:54;8.32;51.72
9861;DHT22;4969;52.304;4.968;2023-03-14T12:23:23;7.68;48.96
9861;DHT22;4969;52.304;4.968;2023-03-14T12:26:06;8.24;53.72
9861;DHT22;4969;52.304;4.968;2023-03-14T12:28:33;7.91;47.49
9861;DHT22;4969;52.304;4.968;2023-03-14T12:34:03;7.84;51.87
9861;DHT22;4969;52.304;4.968;2023-03-14T12:36:51;8.17;49.11
9861;DHT22;4969;52.304;4.968;2023-03-14T12:39:21;8.37;49.65
9861;DHT22;4969;52.304;4.968;2023-03-14T12:41:53;8.40;46.24
9861;DHT22;4969;52.304;4.968;2023-03-14T12:44:42;8.33;47.15
9861;DHT22;4969;52.304;4.968;2023-03-14T12:47:44;8.72;54.54
9861;DHT22;4969;52.304;4.968;2023-03-14T12:50:33;8.73;47.97
9861;DHT22;4969;52.304;4.968;2023-03-14T12:56:24;8.47;51.35
9861;DHT22;4969;52.304;4.968;2023-03-14T12:59:05;8.99;56.37
9861;DHT22;4969;52.304;4.968;2023-03-14T13:01:35;9.20;49.86
9861;DHT22;4969;52.304;4.968;2023-03-14T13:04:04;9.19;46.32
9861;DHT22;4969;52.304;4.968;2023-03-14T13:06:52;9.19;49.53
9861;DHT22;4969;52.304;4.968;2023-03-14T13:09:35;8.95;47.91
9861;DHT22;4969;52.304;4.968;2023-03-14T13:12:03;8.82;55.21
9861;DHT22;4969;52.304;4.968;2023-03-14T13:14:40;8.68;47.04
9861;DHT22;4969;52.304;4.968;2023-03-14T13:17:10;8.67;51.90
9861;DHT22;4969;52.304;4.968;2023-03-14T13:19:36;7.79;48.81
9861;DHT22;4969;52.304;4.968;2023-03-14T13:22:15;8.24;49.54
9861;DHT22;4969;52.304;4.968;2023-03-14T13:24:43;8.10;50.55
9861;DHT22;4969;52.304;4.968;2023-03-14T13:27:17;7.60;50.72
9861;DHT22;4969;52.304;4.968;2023-03-14T13:29:44;8.29;54.19
9861;DHT22;4969;52.304;4.968;2023-03-14T13:32:16;7.96;49.76
9861;DHT22;4969;52.304;4.968;2023-03-14T13:34:43;7.79;47.56
9861;DHT22;4969;52.304;4.968;2023-03-14T13:37:16;7.86;43.62
9861;DHT22;4969;52.304;4.968;2023-03-14T13:39:43;8.32;48.13
9861;DHT22;4969;52.304;4.968;2023-03-14T13:42:15;8.09;47.45
9861;DHT22;4969;52.304;4.968;2023-03-14T13:44:42;7.91;46.82
9861;DHT22;4969;52.304;4.968;2023-03-14T13:47:13;8.05;46.83
9861;DHT22;4969;52.304;4.968;2023-03-14T13:49:41;8.41;45.49
9861;DHT22;4969;52.304;4.968;2023-03-14T13:52:23;8.60;46.56
9861;DHT22;4969;52.304;4.968;2023-03-14T13:54:53;8.50;53.14
9861;DHT22;4969;52.304;4.968;2023-03-14T13:57:20;8.58;43.51
9861;DHT22;4969;52.304;4.968;2023-03-14T13:59:59;8.13;44.02
9861;DHT22;4969;52.304;4.968;2023-03-14T14:02:26;8.22;43.58
9861;DHT22;4969;52.304;4.968;2023-03-14T14:04:53;8.06;46.68
9861;DHT22;4969;52.304;4.968;2023-03-14T14:07:20;8.40;46.22
9861;DHT22;4969;52.304;4.968;2023-03-14T14:09:49;9.23;49.85
9861;DHT22;4969;52.304;4.968;2023-03-14T14:12:18;8.23;45.83
9861;DHT22;4969;52.304;4.968;2023-03-14T14:14:52;9.12;61.73
9861;DHT22;4969;52.304;4.968;2023-03-14T14:17:25;8.95;45.47
9861;DHT22;4969;52.304;4.968;2023-03-14T14:19:53;8.33;50.11
9861;DHT22;4969;52.304;4.968;2023-03-14T14:22:21;7.81;49.06
9861;DHT22;4969;52.304;4.968;2023-03-14T14:24:49;7.81;43.96
9861;DHT22;4969;52.304;4.968;2023-03-14T14:27:19;7.57;44.45
9861;DHT22;4969;52.304;4.968;2023-03-14T14:29:58;7.86;45.81
9861;DHT22;4969;52.304;4.968;2023-03-14T14:32:26;7.75;49.53
9861;DHT22;4969;52.304;4.968;2023-03-14T14:34:57;8.30;52.04
9861;DHT22;4969;52.304;4.968;2023-03-14T14:37:26;8.24;50.57
9861;DHT22;4969;52.304;4.968;2023-03-14T14:39:56;8.26;63.44
9861;DHT22;4969;52.304;4.968;2023-03-14T14:42:26;7.89;49.35
9861;DHT22;4969;52.304;4.968;2023-03-14T14:44:53;7.92;45.26
9861;DHT22;4969;52.304;4.968;2023-03-14T14:47:22;7.95;45.70
9861;DHT22;4969;52.304;4.968;2023-03-14T14:49:51;8.12;50.73
9861;DHT22;4969;52.304;4.968;2023-03-14T14:52:21;7.78;43.50
9861;DHT22;4969;52.304;4.968;2023-03-14T14:54:52;7.85;44.94
9861;DHT22;4969;52.304;4.968;2023-03-14T14:57:23;7.77;43.54
9861;DHT22;4969;52.304;4.968;2023-03-14T14:59:51;8.10;50.65
9861;DHT22;4969;52.304;4.968;2023-03-14T15:02:34;8.43;52.37
9861;DHT22;4969;52.304;4.968;2023-03-14T15:05:03;8.10;47.75
9861;DHT22;4969;52.304;4.968;2023-03-14T15:07:30;8.82;53.06
9861;DHT22;4969;52.304;4.968;2023-03-14T15:09:56;8.03;46.78
9861;DHT22;4969;52.304;4.968;2023-03-14T15:12:24;8.03;46.15
9861;DHT22;4969;52.304;4.968;2023-03-14T15:14:51;8.24;49.21
9861;DHT22;4969;52.304;4.968;2023-03-14T15:17:17;8.33;60.56
9861;DHT22;4969;52.304;4.968;2023-03-14T15:19:44;8.15;45.11
9861;DHT22;4969;52.304;4.968;2023-03-14T15:22:12;7.98;47.04
9861;DHT22;4969;52.304;4.968;2023-03-14T15:24:39;7.96;48.76
9861;DHT22;4969;52.304;4.968;2023-03-14T15:27:11;8.06;47.94
9861;DHT22;4969;52.304;4.968;2023-03-14T15:29:40;8.06;50.16
9861;DHT22;4969;52.304;4.968;2023-03-14T15:32:09;8.10;59.01
9861;DHT22;4969;52.304;4.968;2023-03-14T15:34:37;7.95;51.86
9861;DHT22;4969;52.304;4.968;2023-03-14T15:37:03;8.75;47.76
9861;DHT22;4969;52.304;4.968;2023-03-14T15:39:32;7.74;54.29
9861;DHT22;4969;52.304;4.968;2023-03-14T15:41:59;7.46;51.20
9861;DHT22;4969;52.304;4.968;2023-03-14T15:44:26;8.79;60.57
9861;DHT22;4969;52.304;4.968;2023-03-14T15:46:53;7.74;50.62
9861;DHT22;4969;52.304;4.968;2023-03-14T15:49:20;7.54;51.12
9861;DHT22;4969;52.304;4.968;2023-03-14T15:51:47;7.71;49.84
9861;DHT22;4969;52.304;4.968;2023-03-14T15:54:14;7.81;52.65
9861;DHT22;4969;52.304;4.968;2023-03-14T15:56:40;7.94;50.78
9861;DHT22;4969;52.304;4.968;2023-03-14T15:59:07;7.44;50.68
9861;DHT22;4969;52.304;4.968;2023-03-14T16:01:33;7.27;52.91
9861;DHT22;4969;52.304;4.968;2023-03-14T16:04:01;7.41;51.26
9861;DHT22;4969;52.304;4.968;2023-03-14T16:06:28;7.71;53.46
9861;DHT22;4969;52.304;4.968;2023-03-14T16:08:56;7.43;50.06
9861;DHT22;4969;52.304;4.968;2023-03-14T16:11:23;7.15;51.11
9861;DHT22;4969;52.304;4.968;2023-03-14T16:13:49;7.23;50.56
9861;DHT22;4969;52.304;4.968;2023-03-14T16:16:16;7.34;50.44
9861;DHT22;4969;52.304;4.968;2023-03-14T16:18:43;7.51;50.17
9861;DHT22;4969;52.304;4.968;2023-03-14T16:21:13;7.18;51.04
9861;DHT22;4969;52.304;4.968;2023-03-14T16:23:39;7.48;55.62
9861;DHT22;4969;52.304;4.968;2023-03-14T16:26:08;8.05;49.09
9861;DHT22;4969;52.304;4.968;2023-03-14T16:28:35;7.51;51.01